AirNav   Pilot Hours Calculator
 
 309 users online  

14KY Blue Haven Farm Airport
Paris, Kentucky, USA

GOING TO PARIS?


FAA INFORMATION EFFECTIVE 15 AUGUST 2019

Location

FAA Identifier: 14KY
Lat/Long: 38-10-25.2740N 084-22-05.7660W
38-10.421233N 084-22.096100W
38.1736872,-84.3682683
(estimated)
Elevation: 985 ft. / 300 m (estimated)
Variation: 03W (1985)
From city: 6 miles SW of PARIS, KY
Time zone: UTC -4 (UTC -5 during Standard Time)
Zip code: 40511

Airport Operations

Airport use: Private use. Permission required prior to landing
Activation date: 12/1970
Control tower: no
ARTCC: INDIANAPOLIS CENTER
FSS: LOUISVILLE FLIGHT SERVICE STATION
Attendance: CONTINUOUS
Wind indicator: no
Segmented circle: no
Landing fee: yes

Airport Communications

WX AWOS-3 at 27K (5 nm NW): 119.975 (502-867-1564)
WX ASOS at LEX (14 nm SW): PHONE 859-281-5700
WX AWOS-3 at IOB (20 nm E): 120.675 (859-498-7001)

Nearby radio navigation aids

VOR radial/distance  VOR name  Freq  Var
HYKr022/13.4LEXINGTON VOR/DME112.6000E
FFTr094/(25.5)FRANKFORT VOR109.4003W
FLMr189/28.7FALMOUTH VOR/DME117.0004W

 
NDB name  Hdg/Dist  Freq  Var  ID
BRIDL070/7.234004WGN --. -.
MOUNT STERLING297/19.521006WIOB .. --- -...
SECO330/29.639303WXYC -..- -.-- -.-.

Airport Services

Airframe service: NONE
Powerplant service: NONE

Runway Information

Runway 13/31

Dimensions: 2240 x 75 ft. / 683 x 23 m
Surface: turf
RUNWAY 13  RUNWAY 31
Traffic pattern: leftleft
Obstructions: grain bin
110' RDO TWR NORTH, UNLGTD & UNMRKD.
fence

Airport Ownership and Management from official FAA records

Ownership: Privately-owned
Owner: ROBERT HERREN
1850 FERGUSON ROAD
LEXINGTON, KY 40511
Phone 606-299-5160
Manager: ROBERT HERREN
1850 FERGUSON ROAD
LEXINGTON, KY 40511
Phone 606-299-5160

Airport Operational Statistics

Aircraft based on the field: 2
Single engine airplanes: 1
Gliders airplanes: 1
    

Additional Remarks

FOR CD CTC LEXINGTON APCH AT 859-514-7890.

Instrument Procedures

There are no published instrument procedures at 14KY.

Some nearby airports with instrument procedures:

27K - Georgetown-Scott County Regional Airport (5 nm NW)
0I8 - Cynthiana-Harrison County Airport (12 nm N)
KLEX - Blue Grass Airport (14 nm SW)
KIOB - Mount Sterling-Montgomery County Airport (20 nm E)
KFFT - Capital City Airport (25 nm W)
 
Loc | Ops | Rwys | IFR | FBO | Links
Com | Nav | Svcs | Stats | Notes
Area around 14KY (Blue Haven Farm Airport)
 
Road maps at: MapQuest Bing Google
 
Aerial photo
No photo
 
Sectional chart

 
Airport distance calculator
Flying to Blue Haven Farm Airport? Find the distance to fly.

From to 14KY

Sunrise and sunset
Times for 26-Aug-2019
 Local
(UTC-4)
 Zulu
(UTC)
Morning civil twilight06:3510:35
Sunrise07:0311:03
Sunset20:1600:16
Evening civil twilight20:4300:43

Current date and time
Zulu (UTC)  26-Aug-2019 09:26:01
Local (UTC-4)  26-Aug-2019 05:26:01
 
METAR
K27K 
5nm NW 
260855Z AUTO 15006KT 10SM OVC019 20/19 A2999 RMK AO1
KLEX 
14nm SW 
260854Z AUTO 15007KT 6SM -RA SCT013 OVC033 22/19 A2999 RMK AO2 SLP143 P0008 60011 T02220194 56004 $
KIOB 
20nm E 
260855Z AUTO 17004KT 10SM DZ BKN029 BKN039 OVC050 21/18 A3002 RMK AO2
TAF
KLEX 
14nm SW 
260520Z 2606/2706 14007KT P6SM VCSH BKN050 TEMPO 2608/2612 4SM -SHRA BKN025 FM261200 16011G16KT 5SM -SHRA BR OVC015 FM262300 17014G19KT P6SM SCT015 OVC025 PROB30 2623/2703 4SM -SHRA BKN015
NOTAMs
Click for the latest NOTAMs
NOTAMs are issued by the DoD/FAA and will open in a separate window not controlled by AirNav.

 

 
 

Would you like to see your business listed on this page?

 If your business provides an interesting product or service to pilots, flight crews, aircraft, or users of the Blue Haven Farm Airport, you should consider listing it here.  To start the listing process, click on the button below
 
Add a business
 

Other Pages about Blue Haven Farm Airport

Update a link
 
Copyright © AirNav, LLC. All rights reserved. Privacy Policy  Contact